sensor_id;sensor_type;location;lat;lon;timestamp;pressure;altitude;pressure_sealevel;temperature;humidity
48204;BME280;33994;50.998;5.864;2023-03-25T00:02:35;99860.66;;;9.05;82.18
48204;BME280;33994;50.998;5.864;2023-03-25T00:05:39;99856.34;;;9.04;82.25
48204;BME280;33994;50.998;5.864;2023-03-25T00:08:43;99864.25;;;8.99;82.12
48204;BME280;33994;50.998;5.864;2023-03-25T00:11:48;99859.94;;;8.98;81.88
48204;BME280;33994;50.998;5.864;2023-03-25T00:14:51;99870.34;;;8.98;81.50
48204;BME280;33994;50.998;5.864;2023-03-25T00:17:54;99868.59;;;8.99;80.94
48204;BME280;33994;50.998;5.864;2023-03-25T00:20:57;99867.81;;;8.95;80.65
48204;BME280;33994;50.998;5.864;2023-03-25T00:24:02;99879.19;;;8.93;80.12
48204;BME280;33994;50.998;5.864;2023-03-25T00:27:05;99874.84;;;8.92;80.03
48204;BME280;33994;50.998;5.864;2023-03-25T00:30:09;99885.28;;;8.93;80.11
48204;BME280;33994;50.998;5.864;2023-03-25T00:33:13;99872.25;;;8.92;80.34
48204;BME280;33994;50.998;5.864;2023-03-25T00:36:16;99885.34;;;8.90;80.00
48204;BME280;33994;50.998;5.864;2023-03-25T00:39:20;99875.81;;;8.88;80.08
48204;BME280;33994;50.998;5.864;2023-03-25T00:42:24;99883.75;;;8.83;80.18
48204;BME280;33994;50.998;5.864;2023-03-25T00:45:27;99875.06;;;8.83;80.19
48204;BME280;33994;50.998;5.864;2023-03-25T00:48:30;99882.09;;;8.81;80.19
48204;BME280;33994;50.998;5.864;2023-03-25T00:51:34;99882.84;;;8.86;80.47
48204;BME280;33994;50.998;5.864;2023-03-25T00:54:38;99881.19;;;8.82;80.55
48204;BME280;33994;50.998;5.864;2023-03-25T00:57:41;99869.97;;;8.78;80.67
48204;BME280;33994;50.998;5.864;2023-03-25T01:00:44;99871.84;;;8.71;80.86
48204;BME280;33994;50.998;5.864;2023-03-25T01:03:48;99865.78;;;8.71;80.95
48204;BME280;33994;50.998;5.864;2023-03-25T01:06:52;99861.53;;;8.67;80.94
48204;BME280;33994;50.998;5.864;2023-03-25T01:09:57;99873.81;;;8.62;81.00
48204;BME280;33994;50.998;5.864;2023-03-25T01:13:00;99877.34;;;8.58;80.98
48204;BME280;33994;50.998;5.864;2023-03-25T01:16:05;99883.53;;;8.53;81.13
48204;BME280;33994;50.998;5.864;2023-03-25T01:19:09;99872.31;;;8.51;81.06
48204;BME280;33994;50.998;5.864;2023-03-25T01:22:12;99868.84;;;8.49;81.12
48204;BME280;33994;50.998;5.864;2023-03-25T01:25:17;99870.66;;;8.47;81.28
48204;BME280;33994;50.998;5.864;2023-03-25T01:28:20;99858.53;;;8.46;81.55
48204;BME280;33994;50.998;5.864;2023-03-25T01:31:24;99853.38;;;8.43;81.72
48204;BME280;33994;50.998;5.864;2023-03-25T01:34:27;99854.34;;;8.39;81.90
48204;BME280;33994;50.998;5.864;2023-03-25T01:37:30;99851.72;;;8.39;82.10
48204;BME280;33994;50.998;5.864;2023-03-25T01:40:34;99860.47;;;8.37;82.07
48204;BME280;33994;50.998;5.864;2023-03-25T01:43:37;99850.88;;;8.37;82.16
48204;BME280;33994;50.998;5.864;2023-03-25T01:46:40;99833.56;;;8.35;82.33
48204;BME280;33994;50.998;5.864;2023-03-25T01:49:44;99851.00;;;8.33;82.37
48204;BME280;33994;50.998;5.864;2023-03-25T01:52:49;99840.63;;;8.30;82.35
48204;BME280;33994;50.998;5.864;2023-03-25T01:55:55;99844.13;;;8.28;82.71
48204;BME280;33994;50.998;5.864;2023-03-25T01:59:00;99837.16;;;8.29;82.86
48204;BME280;33994;50.998;5.864;2023-03-25T02:02:06;99838.03;;;8.30;82.94
48204;BME280;33994;50.998;5.864;2023-03-25T02:05:15;99845.03;;;8.27;83.05
48204;BME280;33994;50.998;5.864;2023-03-25T02:08:20;99838.06;;;8.28;83.18
48204;BME280;33994;50.998;5.864;2023-03-25T02:11:26;99843.28;;;8.26;83.25
48204;BME280;33994;50.998;5.864;2023-03-25T02:14:31;99840.72;;;8.25;83.50
48204;BME280;33994;50.998;5.864;2023-03-25T02:17:44;99838.13;;;8.25;83.52
48204;BME280;33994;50.998;5.864;2023-03-25T02:24:53;99839.09;;;8.21;83.72
48204;BME280;33994;50.998;5.864;2023-03-25T02:28:04;99838.19;;;8.22;83.76
48204;BME280;33994;50.998;5.864;2023-03-25T02:31:26;99844.19;;;8.25;83.56
48204;BME280;33994;50.998;5.864;2023-03-25T02:34:48;99832.03;;;8.26;83.36
48204;BME280;33994;50.998;5.864;2023-03-25T02:38:10;99842.38;;;8.29;83.26
48204;BME280;33994;50.998;5.864;2023-03-25T02:41:21;99847.66;;;8.26;83.48
48204;BME280;33994;50.998;5.864;2023-03-25T02:44:30;99842.53;;;8.21;84.16
48204;BME280;33994;50.998;5.864;2023-03-25T02:47:43;99859.97;;;8.18;85.13
48204;BME280;33994;50.998;5.864;2023-03-25T02:50:50;99844.41;;;8.16;85.94
48204;BME280;33994;50.998;5.864;2023-03-25T02:53:58;99851.41;;;8.13;87.00
48204;BME280;33994;50.998;5.864;2023-03-25T02:57:03;99860.94;;;8.14;87.96
48204;BME280;33994;50.998;5.864;2023-03-25T03:00:11;99852.28;;;8.12;89.08
48204;BME280;33994;50.998;5.864;2023-03-25T03:03:15;99841.94;;;8.09;89.40
48204;BME280;33994;50.998;5.864;2023-03-25T03:06:18;99847.06;;;8.12;89.35
48204;BME280;33994;50.998;5.864;2023-03-25T03:09:35;99841.84;;;8.12;89.40
48204;BME280;33994;50.998;5.864;2023-03-25T03:12:44;99841.94;;;8.09;88.54
48204;BME280;33994;50.998;5.864;2023-03-25T03:15:58;99833.19;;;8.11;87.54
48204;BME280;33994;50.998;5.864;2023-03-25T03:19:18;99839.25;;;8.12;86.53
48204;BME280;33994;50.998;5.864;2023-03-25T03:22:34;99840.09;;;8.14;86.07
48204;BME280;33994;50.998;5.864;2023-03-25T03:25:46;99841.69;;;8.21;85.75
48204;BME280;33994;50.998;5.864;2023-03-25T03:28:57;99833.81;;;8.22;84.60
48204;BME280;33994;50.998;5.864;2023-03-25T03:32:06;99832.06;;;8.24;84.51
48204;BME280;33994;50.998;5.864;2023-03-25T03:35:15;99829.41;;;8.27;83.43
48204;BME280;33994;50.998;5.864;2023-03-25T03:38:23;99829.41;;;8.26;82.89
48204;BME280;33994;50.998;5.864;2023-03-25T03:41:29;99847.69;;;8.24;82.85
48204;BME280;33994;50.998;5.864;2023-03-25T03:44:38;99843.28;;;8.28;82.89
48204;BME280;33994;50.998;5.864;2023-03-25T03:47:47;99836.31;;;8.28;82.49
48204;BME280;33994;50.998;5.864;2023-03-25T03:50:51;99854.50;;;8.30;82.00
48204;BME280;33994;50.998;5.864;2023-03-25T03:53:57;99849.25;;;8.33;82.04
48204;BME280;33994;50.998;5.864;2023-03-25T03:57:06;99847.53;;;8.32;81.67
48204;BME280;33994;50.998;5.864;2023-03-25T04:00:15;99857.06;;;8.33;81.52
48204;BME280;33994;50.998;5.864;2023-03-25T04:03:22;99850.06;;;8.35;81.45
48204;BME280;33994;50.998;5.864;2023-03-25T04:06:31;99854.34;;;8.38;80.73
48204;BME280;33994;50.998;5.864;2023-03-25T04:09:40;99853.50;;;8.37;80.90
48204;BME280;33994;50.998;5.864;2023-03-25T04:12:48;99843.88;;;8.41;80.66
48204;BME280;33994;50.998;5.864;2023-03-25T04:15:55;99841.22;;;8.42;80.59
48204;BME280;33994;50.998;5.864;2023-03-25T04:18:58;99843.88;;;8.41;80.32
48204;BME280;33994;50.998;5.864;2023-03-25T04:22:02;99851.69;;;8.41;80.32
48204;BME280;33994;50.998;5.864;2023-03-25T04:25:06;99859.44;;;8.44;80.17
48204;BME280;33994;50.998;5.864;2023-03-25T04:28:11;99860.28;;;8.44;79.88
48204;BME280;33994;50.998;5.864;2023-03-25T04:31:15;99855.19;;;8.38;80.13
48204;BME280;33994;50.998;5.864;2023-03-25T04:34:19;99856.09;;;8.37;80.67
48204;BME280;33994;50.998;5.864;2023-03-25T04:37:22;99858.69;;;8.37;81.04
48204;BME280;33994;50.998;5.864;2023-03-25T04:40:25;99854.34;;;8.39;80.99
48204;BME280;33994;50.998;5.864;2023-03-25T04:43:30;99838.72;;;8.38;80.90
48204;BME280;33994;50.998;5.864;2023-03-25T04:46:33;99853.44;;;8.40;81.20
48204;BME280;33994;50.998;5.864;2023-03-25T04:49:36;99839.50;;;8.41;81.01
48204;BME280;33994;50.998;5.864;2023-03-25T04:52:39;99853.47;;;8.39;81.11
48204;BME280;33994;50.998;5.864;2023-03-25T04:55:42;99853.44;;;8.40;81.04
48204;BME280;33994;50.998;5.864;2023-03-25T04:58:47;99851.63;;;8.42;80.91
48204;BME280;33994;50.998;5.864;2023-03-25T05:01:50;99841.22;;;8.42;80.65
48204;BME280;33994;50.998;5.864;2023-03-25T05:04:53;99854.22;;;8.44;80.60
48204;BME280;33994;50.998;5.864;2023-03-25T05:07:56;99842.91;;;8.45;80.54
48204;BME280;33994;50.998;5.864;2023-03-25T05:10:59;99849.00;;;8.44;80.52
48204;BME280;33994;50.998;5.864;2023-03-25T05:14:03;99849.03;;;8.42;80.76
48204;BME280;33994;50.998;5.864;2023-03-25T05:17:07;99841.22;;;8.42;80.86
48204;BME280;33994;50.998;5.864;2023-03-25T05:20:11;99855.94;;;8.45;80.93
48204;BME280;33994;50.998;5.864;2023-03-25T05:23:14;99851.56;;;8.45;80.79
48204;BME280;33994;50.998;5.864;2023-03-25T05:26:17;99856.84;;;8.44;81.02
48204;BME280;33994;50.998;5.864;2023-03-25T05:29:22;99842.13;;;8.41;81.76
48204;BME280;33994;50.998;5.864;2023-03-25T05:32:25;99857.81;;;8.38;82.78
48204;BME280;33994;50.998;5.864;2023-03-25T05:35:29;99864.88;;;8.33;83.27
48204;BME280;33994;50.998;5.864;2023-03-25T05:38:32;99864.06;;;8.31;84.19
48204;BME280;33994;50.998;5.864;2023-03-25T05:41:35;99863.19;;;8.31;84.70
48204;BME280;33994;50.998;5.864;2023-03-25T05:44:40;99861.56;;;8.25;85.26
48204;BME280;33994;50.998;5.864;2023-03-25T05:47:43;99870.25;;;8.25;85.42
48204;BME280;33994;50.998;5.864;2023-03-25T05:50:46;99876.31;;;8.26;85.40
48204;BME280;33994;50.998;5.864;2023-03-25T05:53:50;99868.47;;;8.27;85.61
48204;BME280;33994;50.998;5.864;2023-03-25T05:56:53;99883.16;;;8.30;85.47
48204;BME280;33994;50.998;5.864;2023-03-25T05:59:58;99885.78;;;8.30;85.19
48204;BME280;33994;50.998;5.864;2023-03-25T06:03:01;99890.91;;;8.33;85.07
48204;BME280;33994;50.998;5.864;2023-03-25T06:06:06;99891.78;;;8.34;84.73
48204;BME280;33994;50.998;5.864;2023-03-25T06:09:09;99885.66;;;8.35;84.29
48204;BME280;33994;50.998;5.864;2023-03-25T06:12:13;99887.38;;;8.37;83.96
48204;BME280;33994;50.998;5.864;2023-03-25T06:15:18;99901.31;;;8.35;83.37
48204;BME280;33994;50.998;5.864;2023-03-25T06:18:22;99883.06;;;8.36;83.20
48204;BME280;33994;50.998;5.864;2023-03-25T06:21:26;99891.69;;;8.38;82.77
48204;BME280;33994;50.998;5.864;2023-03-25T06:24:29;99899.50;;;8.38;82.66
48204;BME280;33994;50.998;5.864;2023-03-25T06:27:32;99890.81;;;8.38;82.47
48204;BME280;33994;50.998;5.864;2023-03-25T06:30:37;99898.69;;;8.36;82.39
48204;BME280;33994;50.998;5.864;2023-03-25T06:33:40;99896.94;;;8.37;82.16
48204;BME280;33994;50.998;5.864;2023-03-25T06:36:43;99899.50;;;8.38;82.15
48204;BME280;33994;50.998;5.864;2023-03-25T06:39:46;99894.22;;;8.41;81.99
48204;BME280;33994;50.998;5.864;2023-03-25T06:42:50;99896.78;;;8.44;82.02
48204;BME280;33994;50.998;5.864;2023-03-25T06:45:54;99900.22;;;8.46;82.01
48204;BME280;33994;50.998;5.864;2023-03-25T06:48:57;99908.84;;;8.48;82.02
48204;BME280;33994;50.998;5.864;2023-03-25T06:52:01;99916.63;;;8.50;82.17
48204;BME280;33994;50.998;5.864;2023-03-25T06:55:04;99907.03;;;8.52;82.25
48204;BME280;33994;50.998;5.864;2023-03-25T06:58:07;99907.09;;;8.49;82.23
48204;BME280;33994;50.998;5.864;2023-03-25T07:01:11;99912.34;;;8.47;82.06
48204;BME280;33994;50.998;5.864;2023-03-25T07:04:15;99910.69;;;8.43;82.14
48204;BME280;33994;50.998;5.864;2023-03-25T07:07:18;99903.72;;;8.44;82.11
48204;BME280;33994;50.998;5.864;2023-03-25T07:10:21;99904.59;;;8.44;82.46
48204;BME280;33994;50.998;5.864;2023-03-25T07:13:24;99908.03;;;8.45;82.62
48204;BME280;33994;50.998;5.864;2023-03-25T07:16:29;99912.28;;;8.50;82.55
48204;BME280;33994;50.998;5.864;2023-03-25T07:19:32;99908.56;;;8.61;82.32
48204;BME280;33994;50.998;5.864;2023-03-25T07:22:35;99913.41;;;8.79;81.93
48204;BME280;33994;50.998;5.864;2023-03-25T07:25:38;99908.50;;;9.02;81.45
48204;BME280;33994;50.998;5.864;2023-03-25T07:28:41;99914.97;;;9.27;80.45
48204;BME280;33994;50.998;5.864;2023-03-25T07:31:45;99903.13;;;9.47;79.71
48204;BME280;33994;50.998;5.864;2023-03-25T07:34:48;99910.84;;;9.52;79.09
48204;BME280;33994;50.998;5.864;2023-03-25T07:37:51;99932.66;;;9.49;78.53
48204;BME280;33994;50.998;5.864;2023-03-25T07:40:54;99931.03;;;9.45;78.13
48204;BME280;33994;50.998;5.864;2023-03-25T07:43:58;99917.16;;;9.43;78.09
48204;BME280;33994;50.998;5.864;2023-03-25T07:47:02;99932.94;;;9.39;77.68
48204;BME280;33994;50.998;5.864;2023-03-25T07:50:06;99937.13;;;9.44;77.73
48204;BME280;33994;50.998;5.864;2023-03-25T07:53:10;99937.13;;;9.44;77.00
48204;BME280;33994;50.998;5.864;2023-03-25T07:56:13;99949.31;;;9.44;76.83
48204;BME280;33994;50.998;5.864;2023-03-25T07:59:16;99942.34;;;9.44;76.35
48204;BME280;33994;50.998;5.864;2023-03-25T08:02:20;99943.19;;;9.46;76.14
48204;BME280;33994;50.998;5.864;2023-03-25T08:05:23;99942.03;;;9.57;76.19
48204;BME280;33994;50.998;5.864;2023-03-25T08:08:27;99974.06;;;9.65;75.86
48204;BME280;33994;50.998;5.864;2023-03-25T08:11:29;99956.66;;;9.64;75.48
48204;BME280;33994;50.998;5.864;2023-03-25T08:14:32;99961.22;;;9.56;75.58
48204;BME280;33994;50.998;5.864;2023-03-25T08:17:37;99971.84;;;9.48;75.60
48204;BME280;33994;50.998;5.864;2023-03-25T08:20:41;99962.41;;;9.42;75.44
48204;BME280;33994;50.998;5.864;2023-03-25T08:23:44;99965.84;;;9.44;75.56
48204;BME280;33994;50.998;5.864;2023-03-25T08:26:47;99963.81;;;9.56;75.44
48204;BME280;33994;50.998;5.864;2023-03-25T08:29:50;99969.75;;;9.62;75.00
48204;BME280;33994;50.998;5.864;2023-03-25T08:32:54;99972.25;;;9.67;74.87
48204;BME280;33994;50.998;5.864;2023-03-25T08:35:57;99969.63;;;9.68;74.63
48204;BME280;33994;50.998;5.864;2023-03-25T08:39:00;99971.34;;;9.68;74.38
48204;BME280;33994;50.998;5.864;2023-03-25T08:42:04;99977.34;;;9.71;74.22
48204;BME280;33994;50.998;5.864;2023-03-25T08:45:09;99975.66;;;9.70;74.01
48204;BME280;33994;50.998;5.864;2023-03-25T08:48:13;99965.16;;;9.72;73.68
48204;BME280;33994;50.998;5.864;2023-03-25T08:51:16;99975.47;;;9.78;73.70
48204;BME280;33994;50.998;5.864;2023-03-25T08:54:19;99977.03;;;9.85;73.51
48204;BME280;33994;50.998;5.864;2023-03-25T08:57:23;99973.47;;;9.88;73.53
48204;BME280;33994;50.998;5.864;2023-03-25T09:00:26;99979.38;;;9.94;73.65
48204;BME280;33994;50.998;5.864;2023-03-25T09:03:30;99970.50;;;10.02;73.20
48204;BME280;33994;50.998;5.864;2023-03-25T09:06:33;99969.50;;;10.06;72.80
48204;BME280;33994;50.998;5.864;2023-03-25T09:09:36;99978.34;;;10.02;72.66
48204;BME280;33994;50.998;5.864;2023-03-25T09:12:39;99976.69;;;9.97;72.35
48204;BME280;33994;50.998;5.864;2023-03-25T09:15:44;99980.22;;;9.96;72.34
48204;BME280;33994;50.998;5.864;2023-03-25T09:18:48;99994.19;;;9.95;72.45
48204;BME280;33994;50.998;5.864;2023-03-25T09:21:51;99980.28;;;9.93;72.34
48204;BME280;33994;50.998;5.864;2023-03-25T09:24:54;99999.44;;;9.94;72.42
48204;BME280;33994;50.998;5.864;2023-03-25T09:27:57;99990.66;;;9.96;72.30
48204;BME280;33994;50.998;5.864;2023-03-25T09:31:00;99996.69;;;9.98;72.73
48204;BME280;33994;50.998;5.864;2023-03-25T09:34:05;99987.84;;;10.04;73.03
48204;BME280;33994;50.998;5.864;2023-03-25T09:37:08;99988.56;;;10.11;72.82
48204;BME280;33994;50.998;5.864;2023-03-25T09:40:13;99997.19;;;10.13;72.34
48204;BME280;33994;50.998;5.864;2023-03-25T09:43:33;99986.69;;;10.16;72.30
48204;BME280;33994;50.998;5.864;2023-03-25T09:46:39;99987.31;;;10.24;72.00
48204;BME280;33994;50.998;5.864;2023-03-25T09:49:45;99996.72;;;10.31;72.15
48204;BME280;33994;50.998;5.864;2023-03-25T09:52:54;99997.44;;;10.36;71.35
48204;BME280;33994;50.998;5.864;2023-03-25T09:55:59;100000.91;;;10.37;71.06
48204;BME280;33994;50.998;5.864;2023-03-25T09:59:04;99990.50;;;10.35;70.96
48204;BME280;33994;50.998;5.864;2023-03-25T10:02:20;99996.66;;;10.33;70.62
48204;BME280;33994;50.998;5.864;2023-03-25T10:05:47;99994.09;;;10.31;70.49
48204;BME280;33994;50.998;5.864;2023-03-25T10:09:02;99983.59;;;10.33;70.58
48204;BME280;33994;50.998;5.864;2023-03-25T10:12:27;100007.09;;;10.34;70.44
48204;BME280;33994;50.998;5.864;2023-03-25T10:15:39;100004.47;;;10.34;71.50
48204;BME280;33994;50.998;5.864;2023-03-25T10:18:56;99996.72;;;10.31;71.30
48204;BME280;33994;50.998;5.864;2023-03-25T10:22:06;99998.28;;;10.38;70.83
48204;BME280;33994;50.998;5.864;2023-03-25T10:25:13;100015.44;;;10.49;70.76
48204;BME280;33994;50.998;5.864;2023-03-25T10:28:19;100029.94;;;10.59;70.65
48204;BME280;33994;50.998;5.864;2023-03-25T10:31:28;100020.31;;;10.61;70.72
48204;BME280;33994;50.998;5.864;2023-03-25T10:34:36;100015.03;;;10.62;70.72
48204;BME280;33994;50.998;5.864;2023-03-25T10:37:42;100027.88;;;10.70;69.77
48204;BME280;33994;50.998;5.864;2023-03-25T10:40:46;100020.13;;;10.67;70.30
48204;BME280;33994;50.998;5.864;2023-03-25T10:43:51;100036.94;;;10.58;71.32
48204;BME280;33994;50.998;5.864;2023-03-25T10:46:57;100023.13;;;10.53;73.41
48204;BME280;33994;50.998;5.864;2023-03-25T10:50:05;100037.13;;;10.51;74.19
48204;BME280;33994;50.998;5.864;2023-03-25T10:53:17;100052.09;;;10.45;74.88
48204;BME280;33994;50.998;5.864;2023-03-25T10:56:24;100048.66;;;10.43;75.88
48204;BME280;33994;50.998;5.864;2023-03-25T10:59:32;100042.72;;;10.37;78.35
48204;BME280;33994;50.998;5.864;2023-03-25T11:02:36;100050.56;;;10.37;79.12
48204;BME280;33994;50.998;5.864;2023-03-25T11:05:39;100054.94;;;10.36;79.71
48204;BME280;33994;50.998;5.864;2023-03-25T11:08:57;100052.31;;;10.36;80.59
48204;BME280;33994;50.998;5.864;2023-03-25T11:12:01;100041.88;;;10.36;80.13
48204;BME280;33994;50.998;5.864;2023-03-25T11:15:11;100052.44;;;10.33;79.95
48204;BME280;33994;50.998;5.864;2023-03-25T11:18:23;100060.34;;;10.30;78.45
48204;BME280;33994;50.998;5.864;2023-03-25T11:21:29;100055.19;;;10.27;78.43
48204;BME280;33994;50.998;5.864;2023-03-25T11:24:42;100056.31;;;10.17;79.46
48204;BME280;33994;50.998;5.864;2023-03-25T11:27:48;100068.78;;;10.06;80.61
48204;BME280;33994;50.998;5.864;2023-03-25T11:31:21;100060.28;;;9.99;82.02
48204;BME280;33994;50.998;5.864;2023-03-25T11:34:24;100050.50;;;10.06;82.61
48204;BME280;33994;50.998;5.864;2023-03-25T11:37:28;100039.78;;;10.16;82.32
48204;BME280;33994;50.998;5.864;2023-03-25T11:40:33;100019.50;;;10.26;81.07
48204;BME280;33994;50.998;5.864;2023-03-25T11:43:37;100013.13;;;10.36;79.62
48204;BME280;33994;50.998;5.864;2023-03-25T11:46:48;100018.13;;;10.44;79.14
48204;BME280;33994;50.998;5.864;2023-03-25T11:49:53;100016.16;;;10.54;76.45
48204;BME280;33994;50.998;5.864;2023-03-25T11:52:58;100016.88;;;10.59;75.64
48204;BME280;33994;50.998;5.864;2023-03-25T11:56:05;100001.94;;;10.64;74.20
48204;BME280;33994;50.998;5.864;2023-03-25T11:59:17;99988.56;;;10.73;73.52
48204;BME280;33994;50.998;5.864;2023-03-25T12:02:25;99983.25;;;10.76;72.87
48204;BME280;33994;50.998;5.864;2023-03-25T12:05:30;99969.19;;;10.80;71.71
48204;BME280;33994;50.998;5.864;2023-03-25T12:08:41;99990.19;;;10.77;70.28
48204;BME280;33994;50.998;5.864;2023-03-25T12:11:52;100005.06;;;10.75;69.77
48204;BME280;33994;50.998;5.864;2023-03-25T12:15:05;99990.28;;;10.74;70.30
48204;BME280;33994;50.998;5.864;2023-03-25T12:18:37;100000.66;;;10.77;70.05
48204;BME280;33994;50.998;5.864;2023-03-25T12:21:56;99990.13;;;10.80;70.17
48204;BME280;33994;50.998;5.864;2023-03-25T12:25:20;99982.22;;;10.82;69.95
48204;BME280;33994;50.998;5.864;2023-03-25T12:28:41;99965.41;;;10.90;70.03
48204;BME280;33994;50.998;5.864;2023-03-25T12:31:55;99973.16;;;10.95;69.49
48204;BME280;33994;50.998;5.864;2023-03-25T12:35:17;99980.03;;;10.98;69.83
48204;BME280;33994;50.998;5.864;2023-03-25T12:38:35;99993.47;;;10.85;70.42
48204;BME280;33994;50.998;5.864;2023-03-25T12:41:44;100025.19;;;10.73;71.36
48204;BME280;33994;50.998;5.864;2023-03-25T12:45:05;100026.56;;;10.55;73.72
48204;BME280;33994;50.998;5.864;2023-03-25T12:48:22;100023.56;;;10.38;74.25
48204;BME280;33994;50.998;5.864;2023-03-25T12:51:36;100044.66;;;10.30;74.95
48204;BME280;33994;50.998;5.864;2023-03-25T12:54:49;100066.69;;;10.20;76.31
48204;BME280;33994;50.998;5.864;2023-03-25T12:58:07;100070.44;;;10.10;78.59
48204;BME280;33994;50.998;5.864;2023-03-25T13:01:20;100090.72;;;9.98;80.54
48204;BME280;33994;50.998;5.864;2023-03-25T13:04:45;100073.78;;;9.81;83.36
48204;BME280;33994;50.998;5.864;2023-03-25T13:07:54;100066.19;;;9.70;83.13
48204;BME280;33994;50.998;5.864;2023-03-25T13:11:05;100055.75;;;9.70;83.96
48204;BME280;33994;50.998;5.864;2023-03-25T13:14:15;100055.84;;;9.65;84.77
48204;BME280;33994;50.998;5.864;2023-03-25T13:17:24;100047.16;;;9.65;84.61
48204;BME280;33994;50.998;5.864;2023-03-25T13:20:31;100045.34;;;9.68;84.96
48204;BME280;33994;50.998;5.864;2023-03-25T13:23:37;100044.44;;;9.69;84.78
48204;BME280;33994;50.998;5.864;2023-03-25T13:26:43;100042.69;;;9.70;85.16
48204;BME280;33994;50.998;5.864;2023-03-25T13:29:48;100043.41;;;9.75;85.44
48204;BME280;33994;50.998;5.864;2023-03-25T13:32:56;100045.00;;;9.82;85.67
48204;BME280;33994;50.998;5.864;2023-03-25T13:36:07;100027.25;;;9.96;86.09
48204;BME280;33994;50.998;5.864;2023-03-25T13:39:14;100020.06;;;10.05;85.49
48204;BME280;33994;50.998;5.864;2023-03-25T13:42:21;100024.25;;;10.10;85.22
48204;BME280;33994;50.998;5.864;2023-03-25T13:45:32;100010.13;;;10.19;85.39
48204;BME280;33994;50.998;5.864;2023-03-25T13:48:41;99998.69;;;10.23;84.19
48204;BME280;33994;50.998;5.864;2023-03-25T13:51:48;100016.91;;;10.26;83.07
48204;BME280;33994;50.998;5.864;2023-03-25T13:54:54;100001.16;;;10.28;82.05
48204;BME280;33994;50.998;5.864;2023-03-25T13:58:18;100010.63;;;10.32;80.37
48204;BME280;33994;50.998;5.864;2023-03-25T14:01:38;100024.56;;;10.32;79.93
48204;BME280;33994;50.998;5.864;2023-03-25T14:07:27;100019.09;;;10.41;79.32
48204;BME280;33994;50.998;5.864;2023-03-25T14:10:49;100019.91;;;10.43;78.85
48204;BME280;33994;50.998;5.864;2023-03-25T14:13:56;100024.22;;;10.44;79.28
48204;BME280;33994;50.998;5.864;2023-03-25T14:17:03;100027.63;;;10.48;79.23
48204;BME280;33994;50.998;5.864;2023-03-25T14:20:09;100037.34;;;10.43;78.55
48204;BME280;33994;50.998;5.864;2023-03-25T14:23:17;100034.88;;;10.38;78.32
48204;BME280;33994;50.998;5.864;2023-03-25T14:26:21;100041.88;;;10.36;78.27
48204;BME280;33994;50.998;5.864;2023-03-25T14:29:33;100053.38;;;10.31;78.18
48204;BME280;33994;50.998;5.864;2023-03-25T14:32:39;100029.00;;;10.30;78.46
48204;BME280;33994;50.998;5.864;2023-03-25T14:35:48;100025.34;;;10.36;78.24
48204;BME280;33994;50.998;5.864;2023-03-25T14:38:54;100032.06;;;10.44;78.14
48204;BME280;33994;50.998;5.864;2023-03-25T14:41:59;100030.91;;;10.56;77.29
48204;BME280;33994;50.998;5.864;2023-03-25T14:49:09;100036.78;;;10.95;75.05
48204;BME280;33994;50.998;5.864;2023-03-25T14:52:27;100031.19;;;11.08;75.11
48204;BME280;33994;50.998;5.864;2023-03-25T14:55:34;100044.13;;;11.12;74.94
48204;BME280;33994;50.998;5.864;2023-03-25T14:58:42;100040.50;;;11.18;75.22
48204;BME280;33994;50.998;5.864;2023-03-25T15:01:46;100034.34;;;11.19;74.70
48204;BME280;33994;50.998;5.864;2023-03-25T15:04:52;100037.03;;;11.17;73.16
48204;BME280;33994;50.998;5.864;2023-03-25T15:07:58;100036.19;;;11.15;72.80
48204;BME280;33994;50.998;5.864;2023-03-25T15:11:05;100059.06;;;11.09;73.06
48204;BME280;33994;50.998;5.864;2023-03-25T15:14:13;100062.88;;;10.99;75.54
48204;BME280;33994;50.998;5.864;2023-03-25T15:17:40;100040.81;;;10.75;79.45
48204;BME280;33994;50.998;5.864;2023-03-25T15:20:43;100042.28;;;10.54;79.96
48204;BME280;33994;50.998;5.864;2023-03-25T15:23:47;100039.97;;;10.43;80.28
48204;BME280;33994;50.998;5.864;2023-03-25T15:26:54;100020.94;;;10.38;80.94
48204;BME280;33994;50.998;5.864;2023-03-25T15:30:04;100025.31;;;10.37;81.53
48204;BME280;33994;50.998;5.864;2023-03-25T15:33:19;100022.69;;;10.37;81.86
48204;BME280;33994;50.998;5.864;2023-03-25T15:36:50;100026.19;;;10.36;81.31
48204;BME280;33994;50.998;5.864;2023-03-25T15:40:09;100029.63;;;10.38;81.01
48204;BME280;33994;50.998;5.864;2023-03-25T15:43:55;100027.75;;;10.43;80.01
48204;BME280;33994;50.998;5.864;2023-03-25T15:50:49;100028.38;;;10.52;75.72
48204;BME280;33994;50.998;5.864;2023-03-25T15:54:16;100025.63;;;10.58;73.53
48204;BME280;33994;50.998;5.864;2023-03-25T15:57:26;100021.19;;;10.60;73.29
48204;BME280;33994;50.998;5.864;2023-03-25T16:00:34;100035.16;;;10.60;72.81
48204;BME280;33994;50.998;5.864;2023-03-25T16:03:40;100089.94;;;10.65;73.25
48204;BME280;33994;50.998;5.864;2023-03-25T16:06:46;100111.19;;;10.53;76.20
48204;BME280;33994;50.998;5.864;2023-03-25T16:09:51;100108.66;;;10.14;79.19
48204;BME280;33994;50.998;5.864;2023-03-25T16:12:54;100093.50;;;9.92;80.53
48204;BME280;33994;50.998;5.864;2023-03-25T16:15:58;100084.78;;;9.93;82.08
48204;BME280;33994;50.998;5.864;2023-03-25T16:19:04;100087.31;;;9.96;82.12
48204;BME280;33994;50.998;5.864;2023-03-25T16:22:17;100089.19;;;9.91;81.99
48204;BME280;33994;50.998;5.864;2023-03-25T16:25:26;100099.78;;;9.85;82.27
48204;BME280;33994;50.998;5.864;2023-03-25T16:28:33;100096.31;;;9.85;82.12
48204;BME280;33994;50.998;5.864;2023-03-25T16:31:38;100097.09;;;9.88;81.61
48204;BME280;33994;50.998;5.864;2023-03-25T16:34:41;100082.09;;;9.95;81.42
48204;BME280;33994;50.998;5.864;2023-03-25T16:37:44;100096.72;;;10.04;79.71
48204;BME280;33994;50.998;5.864;2023-03-25T16:40:48;100100.84;;;10.12;78.37
48204;BME280;33994;50.998;5.864;2023-03-25T16:43:51;100101.50;;;10.22;77.95
48204;BME280;33994;50.998;5.864;2023-03-25T16:46:56;100103.94;;;10.28;77.00
48204;BME280;33994;50.998;5.864;2023-03-25T16:50:01;100112.56;;;10.33;76.67